sensor_id;sensor_type;location;lat;lon;timestamp;pressure;altitude;pressure_sealevel;temperature;humidity
57572;BME280;44459;43.522;24.470;2022-08-19T00:00:32;99715.59;;;25.13;57.36
57572;BME280;44459;43.522;24.470;2022-08-19T00:02:57;99712.81;;;25.00;57.32
57572;BME280;44459;43.522;24.470;2022-08-19T00:05:23;99722.66;;;25.01;57.75
57572;BME280;44459;43.522;24.470;2022-08-19T00:07:50;99716.75;;;24.95;57.36
57572;BME280;44459;43.522;24.470;2022-08-19T00:10:18;99718.00;;;24.89;58.56
57572;BME280;44459;43.522;24.470;2022-08-19T00:12:44;99716.59;;;24.82;58.26
57572;BME280;44459;43.522;24.470;2022-08-19T00:15:12;99714.06;;;24.79;58.86
57572;BME280;44459;43.522;24.470;2022-08-19T00:17:40;99716.28;;;24.73;59.25
57572;BME280;44459;43.522;24.470;2022-08-19T00:20:06;99708.38;;;24.70;59.19
57572;BME280;44459;43.522;24.470;2022-08-19T00:22:32;99718.41;;;24.68;59.57
57572;BME280;44459;43.522;24.470;2022-08-19T00:24:58;99718.75;;;24.62;60.14
57572;BME280;44459;43.522;24.470;2022-08-19T00:27:24;99718.06;;;24.58;60.04
57572;BME280;44459;43.522;24.470;2022-08-19T00:29:49;99720.75;;;24.58;60.17
57572;BME280;44459;43.522;24.470;2022-08-19T00:32:16;99724.88;;;24.49;59.97
57572;BME280;44459;43.522;24.470;2022-08-19T00:34:41;99723.25;;;24.47;60.80
57572;BME280;44459;43.522;24.470;2022-08-19T00:37:06;99728.91;;;24.42;60.57
57572;BME280;44459;43.522;24.470;2022-08-19T00:39:32;99733.59;;;24.39;60.77
57572;BME280;44459;43.522;24.470;2022-08-19T00:41:57;99731.84;;;24.38;61.17
57572;BME280;44459;43.522;24.470;2022-08-19T00:44:26;99731.16;;;24.34;61.21
57572;BME280;44459;43.522;24.470;2022-08-19T00:46:54;99730.66;;;24.28;60.83
57572;BME280;44459;43.522;24.470;2022-08-19T00:49:35;99725.63;;;24.22;60.29
57572;BME280;44459;43.522;24.470;2022-08-19T00:52:07;99729.28;;;24.21;61.57
57572;BME280;44459;43.522;24.470;2022-08-19T00:54:35;99726.22;;;24.11;61.17
57572;BME280;44459;43.522;24.470;2022-08-19T00:57:05;99736.13;;;24.11;61.40
57572;BME280;44459;43.522;24.470;2022-08-19T00:59:31;99740.06;;;24.05;61.70
57572;BME280;44459;43.522;24.470;2022-08-19T01:01:59;99739.25;;;24.03;62.27
57572;BME280;44459;43.522;24.470;2022-08-19T01:04:24;99735.84;;;23.99;61.97
57572;BME280;44459;43.522;24.470;2022-08-19T01:06:50;99743.19;;;23.97;62.45
57572;BME280;44459;43.522;24.470;2022-08-19T01:09:15;99744.31;;;23.93;62.88
57572;BME280;44459;43.522;24.470;2022-08-19T01:11:43;99743.53;;;23.91;62.94
57572;BME280;44459;43.522;24.470;2022-08-19T01:14:09;99741.97;;;23.87;63.32
57572;BME280;44459;43.522;24.470;2022-08-19T01:16:36;99742.44;;;23.78;63.21
57572;BME280;44459;43.522;24.470;2022-08-19T01:19:03;99742.63;;;23.75;63.02
57572;BME280;44459;43.522;24.470;2022-08-19T01:21:42;99740.88;;;23.74;63.43
57572;BME280;44459;43.522;24.470;2022-08-19T01:24:11;99747.41;;;23.70;63.24
57572;BME280;44459;43.522;24.470;2022-08-19T01:26:41;99752.09;;;23.67;63.29
57572;BME280;44459;43.522;24.470;2022-08-19T01:29:08;99750.44;;;23.64;64.01
57572;BME280;44459;43.522;24.470;2022-08-19T01:31:34;99754.09;;;23.63;63.72
57572;BME280;44459;43.522;24.470;2022-08-19T01:34:01;99750.59;;;23.61;63.66
57572;BME280;44459;43.522;24.470;2022-08-19T01:36:36;99741.91;;;23.56;64.12
57572;BME280;44459;43.522;24.470;2022-08-19T01:39:06;99743.81;;;23.54;64.43
57572;BME280;44459;43.522;24.470;2022-08-19T01:41:32;99745.56;;;23.55;64.78
57572;BME280;44459;43.522;24.470;2022-08-19T01:43:58;99748.41;;;23.52;64.94
57572;BME280;44459;43.522;24.470;2022-08-19T01:46:23;99757.44;;;23.51;64.90
57572;BME280;44459;43.522;24.470;2022-08-19T01:48:49;99761.09;;;23.50;65.11
57572;BME280;44459;43.522;24.470;2022-08-19T01:51:15;99762.06;;;23.49;65.14
57572;BME280;44459;43.522;24.470;2022-08-19T01:53:41;99757.56;;;23.49;64.89
57572;BME280;44459;43.522;24.470;2022-08-19T01:56:07;99759.28;;;23.50;64.82
57572;BME280;44459;43.522;24.470;2022-08-19T01:58:38;99759.19;;;23.52;64.90
57572;BME280;44459;43.522;24.470;2022-08-19T02:01:05;99754.59;;;23.54;65.17
57572;BME280;44459;43.522;24.470;2022-08-19T02:03:31;99757.22;;;23.55;64.74
57572;BME280;44459;43.522;24.470;2022-08-19T02:06:01;99751.88;;;23.54;64.38
57572;BME280;44459;43.522;24.470;2022-08-19T02:08:31;99758.41;;;23.50;63.64
57572;BME280;44459;43.522;24.470;2022-08-19T02:10:57;99752.41;;;23.45;63.04
57572;BME280;44459;43.522;24.470;2022-08-19T02:13:23;99754.53;;;23.38;63.19
57572;BME280;44459;43.522;24.470;2022-08-19T02:15:49;99757.47;;;23.34;63.70
57572;BME280;44459;43.522;24.470;2022-08-19T02:18:14;99754.94;;;23.31;64.17
57572;BME280;44459;43.522;24.470;2022-08-19T02:20:40;99769.44;;;23.28;64.40
57572;BME280;44459;43.522;24.470;2022-08-19T02:23:07;99759.78;;;23.24;64.57
57572;BME280;44459;43.522;24.470;2022-08-19T02:25:32;99757.31;;;23.20;64.87
57572;BME280;44459;43.522;24.470;2022-08-19T02:27:58;99757.50;;;23.17;65.08
57572;BME280;44459;43.522;24.470;2022-08-19T02:30:24;99762.09;;;23.15;66.26
57572;BME280;44459;43.522;24.470;2022-08-19T02:32:50;99764.16;;;23.10;66.24
57572;BME280;44459;43.522;24.470;2022-08-19T02:35:16;99757.19;;;23.05;65.95
57572;BME280;44459;43.522;24.470;2022-08-19T02:37:43;99768.91;;;23.04;66.82
57572;BME280;44459;43.522;24.470;2022-08-19T02:40:28;99767.41;;;22.99;66.93
57572;BME280;44459;43.522;24.470;2022-08-19T02:42:54;99771.13;;;22.96;66.88
57572;BME280;44459;43.522;24.470;2022-08-19T02:45:20;99776.59;;;22.95;66.85
57572;BME280;44459;43.522;24.470;2022-08-19T02:47:45;99782.06;;;22.93;66.79
57572;BME280;44459;43.522;24.470;2022-08-19T02:50:11;99779.59;;;22.89;66.85
57572;BME280;44459;43.522;24.470;2022-08-19T02:52:38;99788.00;;;22.83;67.20
57572;BME280;44459;43.522;24.470;2022-08-19T02:55:04;99785.38;;;22.81;67.25
57572;BME280;44459;43.522;24.470;2022-08-19T02:57:30;99787.13;;;22.82;67.58
57572;BME280;44459;43.522;24.470;2022-08-19T02:59:57;99787.34;;;22.78;67.54
57572;BME280;44459;43.522;24.470;2022-08-19T03:02:22;99789.31;;;22.74;67.65
57572;BME280;44459;43.522;24.470;2022-08-19T03:04:48;99799.22;;;22.74;67.61
57572;BME280;44459;43.522;24.470;2022-08-19T03:07:15;99795.75;;;22.72;67.87
57572;BME280;44459;43.522;24.470;2022-08-19T03:09:41;99803.16;;;22.67;67.99
57572;BME280;44459;43.522;24.470;2022-08-19T03:12:07;99797.03;;;22.63;67.93
57572;BME280;44459;43.522;24.470;2022-08-19T03:14:33;99808.81;;;22.61;67.82
57572;BME280;44459;43.522;24.470;2022-08-19T03:16:59;99795.63;;;22.56;67.98
57572;BME280;44459;43.522;24.470;2022-08-19T03:19:25;99804.63;;;22.55;68.13
57572;BME280;44459;43.522;24.470;2022-08-19T03:21:51;99805.66;;;22.52;68.18
57572;BME280;44459;43.522;24.470;2022-08-19T03:24:18;99799.69;;;22.46;68.49
57572;BME280;44459;43.522;24.470;2022-08-19T03:26:50;99798.84;;;22.45;68.47
57572;BME280;44459;43.522;24.470;2022-08-19T03:29:18;99806.81;;;22.47;69.01
57572;BME280;44459;43.522;24.470;2022-08-19T03:31:45;99802.47;;;22.44;68.99
57572;BME280;44459;43.522;24.470;2022-08-19T03:34:13;99806.97;;;22.44;68.27
57572;BME280;44459;43.522;24.470;2022-08-19T03:36:39;99798.41;;;22.36;68.05
57572;BME280;44459;43.522;24.470;2022-08-19T03:39:04;99806.41;;;22.37;68.42
57572;BME280;44459;43.522;24.470;2022-08-19T03:41:32;99819.03;;;22.35;68.90
57572;BME280;44459;43.522;24.470;2022-08-19T03:43:59;99818.34;;;22.32;68.80
57572;BME280;44459;43.522;24.470;2022-08-19T03:46:29;99819.19;;;22.32;68.32
57572;BME280;44459;43.522;24.470;2022-08-19T03:48:57;99821.97;;;22.31;68.95
57572;BME280;44459;43.522;24.470;2022-08-19T03:51:29;99818.41;;;22.30;69.29
57572;BME280;44459;43.522;24.470;2022-08-19T03:53:57;99817.53;;;22.30;69.54
57572;BME280;44459;43.522;24.470;2022-08-19T03:56:23;99815.72;;;22.30;69.64
57572;BME280;44459;43.522;24.470;2022-08-19T03:58:51;99816.75;;;22.28;70.03
57572;BME280;44459;43.522;24.470;2022-08-19T04:01:19;99815.66;;;22.32;69.91
57572;BME280;44459;43.522;24.470;2022-08-19T04:03:46;99814.69;;;22.33;70.45
57572;BME280;44459;43.522;24.470;2022-08-19T04:08:40;99831.63;;;22.35;69.79
57572;BME280;44459;43.522;24.470;2022-08-19T04:11:11;99830.50;;;22.39;69.47
57572;BME280;44459;43.522;24.470;2022-08-19T04:13:37;99826.09;;;22.38;69.87
57572;BME280;44459;43.522;24.470;2022-08-19T04:16:04;99833.00;;;22.43;70.80
57572;BME280;44459;43.522;24.470;2022-08-19T04:18:31;99824.88;;;22.45;70.72
57572;BME280;44459;43.522;24.470;2022-08-19T04:20:56;99827.41;;;22.48;69.94
57572;BME280;44459;43.522;24.470;2022-08-19T04:23:22;99822.66;;;22.53;70.66
57572;BME280;44459;43.522;24.470;2022-08-19T04:25:48;99831.38;;;22.58;71.14
57572;BME280;44459;43.522;24.470;2022-08-19T04:28:14;99826.63;;;22.63;71.04
57572;BME280;44459;43.522;24.470;2022-08-19T04:30:46;99836.88;;;22.74;70.77
57572;BME280;44459;43.522;24.470;2022-08-19T04:33:14;99832.72;;;22.85;69.47
57572;BME280;44459;43.522;24.470;2022-08-19T04:35:43;99833.06;;;22.96;69.30
57572;BME280;44459;43.522;24.470;2022-08-19T04:38:10;99836.84;;;23.10;69.24
57572;BME280;44459;43.522;24.470;2022-08-19T04:40:43;99825.38;;;23.23;68.97
57572;BME280;44459;43.522;24.470;2022-08-19T04:43:28;99836.41;;;23.36;69.36
57572;BME280;44459;43.522;24.470;2022-08-19T04:45:53;99838.38;;;23.49;69.24
57572;BME280;44459;43.522;24.470;2022-08-19T04:48:19;99830.13;;;23.52;67.12
57572;BME280;44459;43.522;24.470;2022-08-19T04:50:51;99839.84;;;23.72;66.53
57572;BME280;44459;43.522;24.470;2022-08-19T04:53:28;99832.81;;;23.85;66.17
57572;BME280;44459;43.522;24.470;2022-08-19T04:55:59;99837.16;;;24.05;66.19
57572;BME280;44459;43.522;24.470;2022-08-19T04:58:27;99831.78;;;24.21;66.28
57572;BME280;44459;43.522;24.470;2022-08-19T05:00:54;99838.91;;;24.37;65.03
57572;BME280;44459;43.522;24.470;2022-08-19T05:03:20;99837.38;;;24.49;65.32
57572;BME280;44459;43.522;24.470;2022-08-19T05:05:48;99833.00;;;24.62;65.46
57572;BME280;44459;43.522;24.470;2022-08-19T05:08:16;99831.44;;;24.74;65.12
57572;BME280;44459;43.522;24.470;2022-08-19T05:10:48;99834.47;;;24.83;64.42
57572;BME280;44459;43.522;24.470;2022-08-19T05:13:14;99836.56;;;24.94;64.19
57572;BME280;44459;43.522;24.470;2022-08-19T05:15:40;99841.31;;;25.04;63.71
57572;BME280;44459;43.522;24.470;2022-08-19T05:18:06;99846.09;;;25.15;63.24
57572;BME280;44459;43.522;24.470;2022-08-19T05:20:50;99836.47;;;25.25;63.05
57572;BME280;44459;43.522;24.470;2022-08-19T05:23:34;99833.13;;;25.36;62.95
57572;BME280;44459;43.522;24.470;2022-08-19T05:25:59;99837.75;;;25.48;63.49
57572;BME280;44459;43.522;24.470;2022-08-19T05:28:25;99842.19;;;25.65;64.45
57572;BME280;44459;43.522;24.470;2022-08-19T05:30:50;99842.28;;;25.77;62.97
57572;BME280;44459;43.522;24.470;2022-08-19T05:33:17;99841.22;;;25.94;63.44
57572;BME280;44459;43.522;24.470;2022-08-19T05:35:43;99840.53;;;26.04;62.21
57572;BME280;44459;43.522;24.470;2022-08-19T05:38:09;99848.59;;;26.20;63.58
57572;BME280;44459;43.522;24.470;2022-08-19T05:40:37;99845.75;;;26.36;61.93
57572;BME280;44459;43.522;24.470;2022-08-19T05:43:05;99839.56;;;26.48;61.73
57572;BME280;44459;43.522;24.470;2022-08-19T05:45:32;99842.31;;;26.61;59.82
57572;BME280;44459;43.522;24.470;2022-08-19T05:47:58;99836.19;;;26.71;59.21
57572;BME280;44459;43.522;24.470;2022-08-19T05:50:24;99848.63;;;26.88;60.64
57572;BME280;44459;43.522;24.470;2022-08-19T05:52:52;99848.28;;;27.07;59.36
57572;BME280;44459;43.522;24.470;2022-08-19T05:55:17;99849.69;;;27.25;59.16
57572;BME280;44459;43.522;24.470;2022-08-19T05:57:45;99855.06;;;27.39;57.63
57572;BME280;44459;43.522;24.470;2022-08-19T06:00:12;99848.59;;;27.54;57.79
57572;BME280;44459;43.522;24.470;2022-08-19T06:02:38;99850.13;;;27.71;56.88
57572;BME280;44459;43.522;24.470;2022-08-19T06:05:05;99842.00;;;27.83;55.87
57572;BME280;44459;43.522;24.470;2022-08-19T06:07:32;99843.00;;;28.08;55.02
57572;BME280;44459;43.522;24.470;2022-08-19T06:09:57;99845.47;;;28.23;54.90
57572;BME280;44459;43.522;24.470;2022-08-19T06:12:23;99840.53;;;28.41;54.55
57572;BME280;44459;43.522;24.470;2022-08-19T06:14:53;99838.31;;;28.59;55.20
57572;BME280;44459;43.522;24.470;2022-08-19T06:17:20;99839.69;;;28.77;53.70
57572;BME280;44459;43.522;24.470;2022-08-19T06:19:50;99834.72;;;28.94;51.34
57572;BME280;44459;43.522;24.470;2022-08-19T06:22:15;99832.66;;;29.09;51.80
57572;BME280;44459;43.522;24.470;2022-08-19T06:24:41;99830.16;;;29.30;51.69
57572;BME280;44459;43.522;24.470;2022-08-19T06:27:07;99837.66;;;29.50;51.68
57572;BME280;44459;43.522;24.470;2022-08-19T06:29:33;99841.88;;;29.65;50.70
57572;BME280;44459;43.522;24.470;2022-08-19T06:32:00;99843.53;;;29.79;50.33
57572;BME280;44459;43.522;24.470;2022-08-19T06:34:27;99838.25;;;30.00;49.18
57572;BME280;44459;43.522;24.470;2022-08-19T06:36:54;99837.28;;;30.23;48.17
57572;BME280;44459;43.522;24.470;2022-08-19T06:39:25;99842.47;;;30.48;45.69
57572;BME280;44459;43.522;24.470;2022-08-19T06:41:54;99837.50;;;30.64;48.49
57572;BME280;44459;43.522;24.470;2022-08-19T06:44:22;99836.81;;;30.83;46.91
57572;BME280;44459;43.522;24.470;2022-08-19T06:46:47;99839.63;;;31.04;44.72
57572;BME280;44459;43.522;24.470;2022-08-19T06:49:14;99843.91;;;31.17;43.29
57572;BME280;44459;43.522;24.470;2022-08-19T06:51:42;99838.13;;;31.31;44.26
57572;BME280;44459;43.522;24.470;2022-08-19T06:54:09;99848.47;;;31.49;43.09
57572;BME280;44459;43.522;24.470;2022-08-19T06:56:35;99842.97;;;31.60;44.05
57572;BME280;44459;43.522;24.470;2022-08-19T06:59:09;99843.50;;;31.74;44.35
57572;BME280;44459;43.522;24.470;2022-08-19T07:01:44;99841.34;;;31.99;41.32
57572;BME280;44459;43.522;24.470;2022-08-19T07:04:12;99837.72;;;32.19;42.29
57572;BME280;44459;43.522;24.470;2022-08-19T07:06:38;99830.88;;;32.34;42.27
57572;BME280;44459;43.522;24.470;2022-08-19T07:09:10;99846.91;;;32.48;39.18
57572;BME280;44459;43.522;24.470;2022-08-19T07:11:36;99834.16;;;32.58;39.89
57572;BME280;44459;43.522;24.470;2022-08-19T07:14:03;99837.06;;;32.66;40.05
57572;BME280;44459;43.522;24.470;2022-08-19T07:16:28;99831.44;;;32.77;38.81
57572;BME280;44459;43.522;24.470;2022-08-19T07:18:54;99834.06;;;32.88;37.88
57572;BME280;44459;43.522;24.470;2022-08-19T07:21:24;99839.81;;;33.05;41.09
57572;BME280;44459;43.522;24.470;2022-08-19T07:23:51;99839.47;;;33.28;38.95
57572;BME280;44459;43.522;24.470;2022-08-19T07:26:27;99848.34;;;33.40;37.92
57572;BME280;44459;43.522;24.470;2022-08-19T07:28:54;99839.09;;;33.60;36.39
57572;BME280;44459;43.522;24.470;2022-08-19T07:31:22;99834.94;;;33.75;35.83
57572;BME280;44459;43.522;24.470;2022-08-19T07:33:49;99840.28;;;33.77;37.17
57572;BME280;44459;43.522;24.470;2022-08-19T07:36:18;99846.72;;;33.85;38.65
57572;BME280;44459;43.522;24.470;2022-08-19T07:38:46;99851.88;;;34.08;35.30
57572;BME280;44459;43.522;24.470;2022-08-19T07:41:20;99843.19;;;34.22;34.28
57572;BME280;44459;43.522;24.470;2022-08-19T07:43:47;99840.53;;;34.40;35.62
57572;BME280;44459;43.522;24.470;2022-08-19T07:46:13;99845.88;;;34.59;34.23
57572;BME280;44459;43.522;24.470;2022-08-19T07:48:41;99846.59;;;34.70;34.14
57572;BME280;44459;43.522;24.470;2022-08-19T07:51:09;99845.34;;;34.82;34.37
57572;BME280;44459;43.522;24.470;2022-08-19T07:53:36;99850.69;;;34.84;33.96
57572;BME280;44459;43.522;24.470;2022-08-19T07:56:02;99838.06;;;34.91;33.40
57572;BME280;44459;43.522;24.470;2022-08-19T07:58:35;99843.06;;;34.96;34.54
57572;BME280;44459;43.522;24.470;2022-08-19T08:01:01;99841.69;;;35.09;34.27
57572;BME280;44459;43.522;24.470;2022-08-19T08:03:28;99843.28;;;35.12;33.48
57572;BME280;44459;43.522;24.470;2022-08-19T08:06:13;99834.00;;;35.13;35.32
57572;BME280;44459;43.522;24.470;2022-08-19T08:08:59;99834.28;;;35.19;33.93
57572;BME280;44459;43.522;24.470;2022-08-19T08:11:45;99837.63;;;35.31;31.62
57572;BME280;44459;43.522;24.470;2022-08-19T08:14:20;99839.44;;;35.40;32.29
57572;BME280;44459;43.522;24.470;2022-08-19T08:16:48;99837.47;;;35.50;32.43
57572;BME280;44459;43.522;24.470;2022-08-19T08:19:15;99831.31;;;35.56;32.35
57572;BME280;44459;43.522;24.470;2022-08-19T08:21:41;99828.81;;;35.63;33.73
57572;BME280;44459;43.522;24.470;2022-08-19T08:24:06;99831.69;;;35.79;32.65
57572;BME280;44459;43.522;24.470;2022-08-19T08:26:32;99824.69;;;35.84;31.78
57572;BME280;44459;43.522;24.470;2022-08-19T08:28:57;99831.13;;;35.75;31.73
57572;BME280;44459;43.522;24.470;2022-08-19T08:31:23;99828.38;;;35.75;33.12
57572;BME280;44459;43.522;24.470;2022-08-19T08:33:49;99829.00;;;35.87;31.88
57572;BME280;44459;43.522;24.470;2022-08-19T08:36:15;99822.84;;;35.67;31.75
57572;BME280;44459;43.522;24.470;2022-08-19T08:38:42;99827.81;;;35.90;31.61
57572;BME280;44459;43.522;24.470;2022-08-19T08:41:18;99830.28;;;36.01;31.25
57572;BME280;44459;43.522;24.470;2022-08-19T08:43:49;99822.13;;;36.09;30.38
57572;BME280;44459;43.522;24.470;2022-08-19T08:51:34;99822.31;;;36.15;30.68
57572;BME280;44459;43.522;24.470;2022-08-19T08:54:02;99813.31;;;36.05;30.35
57572;BME280;44459;43.522;24.470;2022-08-19T08:56:29;99804.19;;;36.05;31.87
57572;BME280;44459;43.522;24.470;2022-08-19T08:59:02;99809.47;;;35.72;30.15
57572;BME280;44459;43.522;24.470;2022-08-19T09:01:32;99810.88;;;35.76;30.14
57572;BME280;44459;43.522;24.470;2022-08-19T09:03:57;99810.63;;;35.44;30.57
57572;BME280;44459;43.522;24.470;2022-08-19T09:06:29;99811.63;;;35.87;31.02
57572;BME280;44459;43.522;24.470;2022-08-19T09:09:04;99814.75;;;36.09;30.28
57572;BME280;44459;43.522;24.470;2022-08-19T09:14:11;99813.00;;;36.42;31.80
57572;BME280;44459;43.522;24.470;2022-08-19T09:16:39;99802.31;;;36.39;30.86
57572;BME280;44459;43.522;24.470;2022-08-19T09:19:07;99804.06;;;36.40;30.12
57572;BME280;44459;43.522;24.470;2022-08-19T09:21:33;99803.28;;;36.56;30.51
57572;BME280;44459;43.522;24.470;2022-08-19T09:24:01;99801.69;;;36.53;30.70
57572;BME280;44459;43.522;24.470;2022-08-19T09:26:27;99808.28;;;36.60;30.51
57572;BME280;44459;43.522;24.470;2022-08-19T09:28:53;99803.16;;;36.73;29.33
57572;BME280;44459;43.522;24.470;2022-08-19T09:31:23;99806.59;;;36.67;29.38
57572;BME280;44459;43.522;24.470;2022-08-19T09:33:49;99804.31;;;36.55;29.02
57572;BME280;44459;43.522;24.470;2022-08-19T09:36:17;99798.06;;;36.53;29.33
57572;BME280;44459;43.522;24.470;2022-08-19T09:38:44;99799.84;;;35.94;29.73
57572;BME280;44459;43.522;24.470;2022-08-19T09:41:17;99785.03;;;36.13;30.97
57572;BME280;44459;43.522;24.470;2022-08-19T09:43:45;99791.69;;;36.44;29.52
57572;BME280;44459;43.522;24.470;2022-08-19T09:46:11;99792.19;;;36.40;29.01
57572;BME280;44459;43.522;24.470;2022-08-19T09:48:38;99790.88;;;36.10;30.01
57572;BME280;44459;43.522;24.470;2022-08-19T09:51:11;99794.00;;;35.97;29.80
57572;BME280;44459;43.522;24.470;2022-08-19T09:53:38;99790.41;;;35.97;29.78
57572;BME280;44459;43.522;24.470;2022-08-19T09:56:05;99787.72;;;36.05;29.65
57572;BME280;44459;43.522;24.470;2022-08-19T09:58:32;99785.22;;;35.94;30.21
57572;BME280;44459;43.522;24.470;2022-08-19T10:00:59;99784.75;;;35.72;29.68
57572;BME280;44459;43.522;24.470;2022-08-19T10:03:26;99781.31;;;35.70;30.95
57572;BME280;44459;43.522;24.470;2022-08-19T10:05:52;99776.31;;;36.00;30.43
57572;BME280;44459;43.522;24.470;2022-08-19T10:08:21;99779.06;;;36.25;29.43
57572;BME280;44459;43.522;24.470;2022-08-19T10:10:48;99768.06;;;36.25;29.95
57572;BME280;44459;43.522;24.470;2022-08-19T10:13:15;99765.16;;;36.27;29.80
57572;BME280;44459;43.522;24.470;2022-08-19T10:15:41;99774.53;;;36.50;28.74
57572;BME280;44459;43.522;24.470;2022-08-19T10:18:07;99779.25;;;36.32;28.47
57572;BME280;44459;43.522;24.470;2022-08-19T10:20:33;99766.06;;;35.76;29.20
57572;BME280;44459;43.522;24.470;2022-08-19T10:23:01;99756.00;;;35.15;30.90
57572;BME280;44459;43.522;24.470;2022-08-19T10:25:26;99772.38;;;35.25;29.85
57572;BME280;44459;43.522;24.470;2022-08-19T10:27:52;99761.31;;;34.64;31.05
57572;BME280;44459;43.522;24.470;2022-08-19T10:30:18;99757.06;;;35.05;32.20
57572;BME280;44459;43.522;24.470;2022-08-19T10:32:44;99759.16;;;35.46;31.93
57572;BME280;44459;43.522;24.470;2022-08-19T10:35:11;99758.34;;;35.79;31.17
57572;BME280;44459;43.522;24.470;2022-08-19T10:37:38;99754.53;;;35.72;30.17
57572;BME280;44459;43.522;24.470;2022-08-19T10:40:06;99749.16;;;35.89;29.74
57572;BME280;44459;43.522;24.470;2022-08-19T10:42:33;99755.19;;;35.66;29.31
57572;BME280;44459;43.522;24.470;2022-08-19T10:44:58;99745.66;;;35.78;29.98
57572;BME280;44459;43.522;24.470;2022-08-19T10:47:24;99751.59;;;36.00;29.59
57572;BME280;44459;43.522;24.470;2022-08-19T10:49:49;99742.59;;;35.81;29.82
57572;BME280;44459;43.522;24.470;2022-08-19T10:52:33;99746.66;;;35.52;31.45
57572;BME280;44459;43.522;24.470;2022-08-19T10:55:08;99745.78;;;35.25;30.20
57572;BME280;44459;43.522;24.470;2022-08-19T10:57:52;99748.69;;;35.24;31.01
57572;BME280;44459;43.522;24.470;2022-08-19T11:00:20;99744.34;;;35.39;31.20
57572;BME280;44459;43.522;24.470;2022-08-19T11:02:46;99746.88;;;35.84;31.37
57572;BME280;44459;43.522;24.470;2022-08-19T11:05:12;99734.06;;;35.93;29.40
57572;BME280;44459;43.522;24.470;2022-08-19T11:07:39;99730.78;;;36.31;28.62
57572;BME280;44459;43.522;24.470;2022-08-19T11:10:09;99730.03;;;36.55;29.53
57572;BME280;44459;43.522;24.470;2022-08-19T11:12:39;99731.59;;;36.57;27.89
57572;BME280;44459;43.522;24.470;2022-08-19T11:15:09;99722.63;;;35.79;30.08
57572;BME280;44459;43.522;24.470;2022-08-19T11:17:37;99717.47;;;36.10;30.26
57572;BME280;44459;43.522;24.470;2022-08-19T11:20:06;99719.59;;;36.16;30.73
57572;BME280;44459;43.522;24.470;2022-08-19T11:22:32;99718.63;;;36.50;29.14
57572;BME280;44459;43.522;24.470;2022-08-19T11:24:57;99710.66;;;36.97;29.38
57572;BME280;44459;43.522;24.470;2022-08-19T11:27:23;99710.13;;;37.34;27.82
57572;BME280;44459;43.522;24.470;2022-08-19T11:29:48;99713.38;;;37.69;30.60
57572;BME280;44459;43.522;24.470;2022-08-19T11:32:14;99716.38;;;37.99;27.57
57572;BME280;44459;43.522;24.470;2022-08-19T11:34:40;99707.22;;;38.06;27.87
57572;BME280;44459;43.522;24.470;2022-08-19T11:37:06;99704.97;;;38.10;26.69
57572;BME280;44459;43.522;24.470;2022-08-19T11:39:34;99713.25;;;38.02;27.69
57572;BME280;44459;43.522;24.470;2022-08-19T11:42:01;99708.47;;;37.88;28.60
57572;BME280;44459;43.522;24.470;2022-08-19T11:44:50;99707.69;;;38.18;29.64
57572;BME280;44459;43.522;24.470;2022-08-19T11:47:16;99695.31;;;38.06;26.72
57572;BME280;44459;43.522;24.470;2022-08-19T11:49:42;99687.28;;;37.88;27.08
57572;BME280;44459;43.522;24.470;2022-08-19T11:52:08;99689.69;;;37.99;27.15
57572;BME280;44459;43.522;24.470;2022-08-19T11:54:34;99684.16;;;36.96;28.12
57572;BME280;44459;43.522;24.470;2022-08-19T11:57:02;99686.59;;;36.24;28.53
57572;BME280;44459;43.522;24.470;2022-08-19T11:59:27;99682.13;;;36.15;28.57
57572;BME280;44459;43.522;24.470;2022-08-19T12:01:54;99673.78;;;36.41;28.33
57572;BME280;44459;43.522;24.470;2022-08-19T12:04:21;99673.66;;;36.75;27.99
57572;BME280;44459;43.522;24.470;2022-08-19T12:06:46;99674.00;;;37.04;29.02
57572;BME280;44459;43.522;24.470;2022-08-19T12:09:11;99668.97;;;37.32;30.14
57572;BME280;44459;43.522;24.470;2022-08-19T12:11:38;99666.56;;;37.45;28.82
57572;BME280;44459;43.522;24.470;2022-08-19T12:14:04;99668.84;;;36.77;28.87
57572;BME280;44459;43.522;24.470;2022-08-19T12:16:31;99668.59;;;36.38;28.73
57572;BME280;44459;43.522;24.470;2022-08-19T12:18:57;99658.28;;;35.90;29.85
57572;BME280;44459;43.522;24.470;2022-08-19T12:21:28;99663.59;;;36.25;30.18
57572;BME280;44459;43.522;24.470;2022-08-19T12:23:55;99662.97;;;36.56;29.01
57572;BME280;44459;43.522;24.470;2022-08-19T12:26:22;99661.78;;;36.74;29.28
57572;BME280;44459;43.522;24.470;2022-08-19T12:28:47;99664.56;;;36.83;28.20
57572;BME280;44459;43.522;24.470;2022-08-19T12:31:13;99669.00;;;36.67;29.00
57572;BME280;44459;43.522;24.470;2022-08-19T12:33:40;99671.59;;;36.93;28.29
57572;BME280;44459;43.522;24.470;2022-08-19T12:36:09;99655.78;;;37.19;28.70
57572;BME280;44459;43.522;24.470;2022-08-19T12:38:35;99659.53;;;37.18;27.74
57572;BME280;44459;43.522;24.470;2022-08-19T12:41:01;99653.19;;;37.18;29.25
57572;BME280;44459;43.522;24.470;2022-08-19T12:43:32;99643.84;;;37.35;27.85
57572;BME280;44459;43.522;24.470;2022-08-19T12:45:58;99651.78;;;37.38;29.08
57572;BME280;44459;43.522;24.470;2022-08-19T12:48:23;99655.59;;;37.21;28.59
57572;BME280;44459;43.522;24.470;2022-08-19T12:50:49;99642.72;;;36.89;28.41
57572;BME280;44459;43.522;24.470;2022-08-19T12:53:15;99651.47;;;36.76;28.52
57572;BME280;44459;43.522;24.470;2022-08-19T12:55:41;99647.00;;;37.08;28.19
57572;BME280;44459;43.522;24.470;2022-08-19T12:58:08;99647.88;;;37.08;27.92
57572;BME280;44459;43.522;24.470;2022-08-19T13:00:33;99641.47;;;37.24;29.50
57572;BME280;44459;43.522;24.470;2022-08-19T13:02:59;99640.09;;;37.20;27.54